createdAt,value
2022-11-01T00:01:51.058Z,13.00
2022-11-01T00:04:20.135Z,13.00
2022-11-01T00:06:47.424Z,13.00
2022-11-01T00:09:14.392Z,13.00
2022-11-01T00:11:41.481Z,13.00
2022-11-01T00:14:08.597Z,13.10
2022-11-01T00:16:35.447Z,13.00
2022-11-01T00:19:02.242Z,13.00
2022-11-01T00:21:29.026Z,13.00
2022-11-01T00:23:55.746Z,13.10
2022-11-01T00:26:24.870Z,13.10
2022-11-01T00:28:52.341Z,13.10
2022-11-01T00:31:20.756Z,13.20
2022-11-01T00:33:47.907Z,13.30
2022-11-01T00:36:15.253Z,13.30
2022-11-01T00:38:42.219Z,13.30
2022-11-01T00:41:09.096Z,13.30
2022-11-01T00:43:36.909Z,13.40
2022-11-01T00:46:04.445Z,13.50
2022-11-01T00:48:31.367Z,13.50
2022-11-01T00:50:58.123Z,13.50
2022-11-01T00:53:25.093Z,13.50
2022-11-01T00:55:52.163Z,13.50
2022-11-01T00:58:19.240Z,13.50
2022-11-01T01:00:48.153Z,13.50
2022-11-01T01:03:15.021Z,13.60
2022-11-01T01:05:41.871Z,13.60
2022-11-01T01:08:08.609Z,13.60
2022-11-01T01:10:35.911Z,13.60
2022-11-01T01:13:03.048Z,13.80
2022-11-01T01:15:30.290Z,13.70
2022-11-01T01:17:57.011Z,13.80
2022-11-01T01:20:23.938Z,13.70
2022-11-01T01:22:50.889Z,13.80
2022-11-01T01:25:18.009Z,13.90
2022-11-01T01:27:44.766Z,13.80
2022-11-01T01:30:12.311Z,13.80
2022-11-01T01:32:39.009Z,13.80
2022-11-01T01:35:06.253Z,13.80
2022-11-01T01:37:33.011Z,13.80
2022-11-01T01:39:59.754Z,13.80
2022-11-01T01:42:33.838Z,13.80
2022-11-01T01:45:00.608Z,13.80
2022-11-01T01:47:33.644Z,13.80
2022-11-01T01:50:03.849Z,13.80
2022-11-01T01:52:33.151Z,13.90
2022-11-01T01:55:05.229Z,13.90
2022-11-01T01:57:32.363Z,13.90
2022-11-01T01:59:59.312Z,14.00
2022-11-01T02:02:26.086Z,14.00
2022-11-01T02:05:02.146Z,14.10
2022-11-01T02:07:29.651Z,14.00
2022-11-01T02:09:57.156Z,14.00
2022-11-01T02:12:30.350Z,14.00
2022-11-01T02:14:58.526Z,14.00
2022-11-01T02:17:29.581Z,14.00
2022-11-01T02:20:08.463Z,14.00
2022-11-01T02:23:07.432Z,14.00
2022-11-01T02:25:40.167Z,14.00
2022-11-01T02:28:36.069Z,14.00
2022-11-01T02:31:25.113Z,14.00
2022-11-01T02:34:16.004Z,14.00
2022-11-01T02:36:57.871Z,13.90
2022-11-01T02:39:31.106Z,13.90
2022-11-01T02:42:04.392Z,13.90
2022-11-01T02:44:38.319Z,13.80
2022-11-01T02:47:06.826Z,13.90
2022-11-01T02:49:40.690Z,13.90
2022-11-01T02:52:15.006Z,13.90
2022-11-01T02:54:49.638Z,13.80
2022-11-01T02:57:40.410Z,13.90
2022-11-01T03:00:23.810Z,13.80
2022-11-01T03:02:56.377Z,13.80
2022-11-01T03:05:40.175Z,13.80
2022-11-01T03:08:12.576Z,13.80
2022-11-01T03:10:46.194Z,13.80
2022-11-01T03:13:38.442Z,13.80
2022-11-01T03:16:28.432Z,13.80
2022-11-01T03:19:03.915Z,13.80
2022-11-01T03:21:37.373Z,13.80
2022-11-01T03:24:26.406Z,13.80
2022-11-01T03:27:04.580Z,13.80
2022-11-01T03:29:32.113Z,13.90
2022-11-01T03:32:01.391Z,13.80
2022-11-01T03:34:28.088Z,13.90
2022-11-01T03:37:01.084Z,13.80
2022-11-01T03:39:42.370Z,13.80
2022-11-01T03:42:14.594Z,13.80
2022-11-01T03:44:47.499Z,13.90
2022-11-01T03:47:14.680Z,13.90
2022-11-01T03:49:41.609Z,14.00
2022-11-01T03:52:08.420Z,14.00
2022-11-01T03:54:35.103Z,14.10
2022-11-01T03:57:01.933Z,14.00
2022-11-01T03:59:28.708Z,14.10
2022-11-01T04:01:55.602Z,14.00
2022-11-01T04:04:22.570Z,14.10
2022-11-01T04:06:50.801Z,14.10
2022-11-01T04:09:17.547Z,14.10
2022-11-01T04:11:44.352Z,14.10
2022-11-01T04:14:29.897Z,14.10
2022-11-01T04:17:15.532Z,14.20
2022-11-01T04:20:00.950Z,14.20
2022-11-01T04:22:27.805Z,14.20
2022-11-01T04:24:54.518Z,14.30
2022-11-01T04:27:23.431Z,14.30
2022-11-01T04:29:50.223Z,14.40
2022-11-01T04:32:17.027Z,14.40
2022-11-01T04:34:43.859Z,14.40
2022-11-01T04:37:11.710Z,14.40
2022-11-01T04:39:38.525Z,14.50
2022-11-01T04:42:05.612Z,14.60
2022-11-01T04:44:32.405Z,14.60
2022-11-01T04:46:59.218Z,14.60
2022-11-01T04:49:26.224Z,14.70
2022-11-01T04:51:53.075Z,14.70
2022-11-01T04:54:19.747Z,14.70
2022-11-01T04:56:46.470Z,14.80
2022-11-01T04:59:13.163Z,14.80
2022-11-01T05:01:41.217Z,14.80
2022-11-01T05:04:08.071Z,14.80
2022-11-01T05:06:35.358Z,14.80
2022-11-01T05:09:02.326Z,14.80
2022-11-01T05:11:29.049Z,14.90
2022-11-01T05:13:56.214Z,14.90
2022-11-01T05:16:22.931Z,14.90
2022-11-01T05:18:49.887Z,15.00
2022-11-01T05:21:17.027Z,14.90
2022-11-01T05:23:43.812Z,15.00
2022-11-01T05:26:10.590Z,15.10
2022-11-01T05:28:37.361Z,15.10
2022-11-01T05:31:04.066Z,15.10
2022-11-01T05:33:30.920Z,15.10
2022-11-01T05:36:00.954Z,15.20
2022-11-01T05:38:27.682Z,15.20
2022-11-01T05:40:54.445Z,15.10
2022-11-01T05:43:21.191Z,15.20
2022-11-01T05:45:47.963Z,15.10
2022-11-01T05:48:14.705Z,15.10
2022-11-01T05:50:45.366Z,15.20
2022-11-01T05:53:12.120Z,15.00
2022-11-01T05:55:39.415Z,15.10
2022-11-01T05:58:06.442Z,15.00
2022-11-01T06:00:34.020Z,14.90
2022-11-01T06:03:01.824Z,14.90
2022-11-01T06:05:29.568Z,14.80
2022-11-01T06:07:56.586Z,14.90
2022-11-01T06:10:23.507Z,14.80
2022-11-01T06:12:50.235Z,14.90
2022-11-01T06:15:17.173Z,14.90
2022-11-01T06:17:44.196Z,14.90
2022-11-01T06:20:11.769Z,14.90
2022-11-01T06:22:39.154Z,14.90
2022-11-01T06:25:06.915Z,14.90
2022-11-01T06:27:33.660Z,15.00
2022-11-01T06:30:00.406Z,15.10
2022-11-01T06:32:27.340Z,15.10
2022-11-01T06:34:54.457Z,15.20
2022-11-01T06:37:21.225Z,15.30
2022-11-01T06:39:48.010Z,15.20
2022-11-01T06:42:14.795Z,15.30
2022-11-01T06:44:43.552Z,15.30
2022-11-01T06:47:12.382Z,15.30
2022-11-01T06:49:39.268Z,15.40
2022-11-01T06:52:06.412Z,15.50
2022-11-01T06:54:33.378Z,15.40
2022-11-01T06:57:00.211Z,15.60
2022-11-01T06:59:27.027Z,15.50
2022-11-01T07:01:55.000Z,15.50
2022-11-01T07:04:22.279Z,15.50
2022-11-01T07:06:49.439Z,15.50
2022-11-01T07:09:16.242Z,15.50
2022-11-01T07:11:42.973Z,15.50
2022-11-01T07:14:09.737Z,15.50
2022-11-01T07:16:36.917Z,15.50
2022-11-01T07:19:03.712Z,15.60
2022-11-01T07:21:30.721Z,15.50
2022-11-01T07:23:57.424Z,15.70
2022-11-01T07:26:24.118Z,15.40
2022-11-01T07:28:50.920Z,15.40
2022-11-01T07:31:17.806Z,15.40
2022-11-01T07:33:44.646Z,15.30
2022-11-01T07:36:11.373Z,15.40
2022-11-01T07:38:38.417Z,15.30
2022-11-01T07:41:06.083Z,15.20
2022-11-01T07:43:34.329Z,15.30
2022-11-01T07:46:03.821Z,15.30
2022-11-01T07:48:30.727Z,15.30
2022-11-01T07:50:57.584Z,15.20
2022-11-01T07:53:24.690Z,15.20
2022-11-01T07:55:51.556Z,15.10
2022-11-01T07:58:18.773Z,15.10
2022-11-01T08:00:45.950Z,14.90
2022-11-01T08:03:17.690Z,14.90
2022-11-01T08:05:46.277Z,14.80
2022-11-01T08:08:14.427Z,14.70
2022-11-01T08:10:42.410Z,14.60
2022-11-01T08:13:22.535Z,14.60
2022-11-01T08:15:51.453Z,14.60
2022-11-01T08:18:21.455Z,14.60
2022-11-01T08:20:48.646Z,14.70
2022-11-01T08:23:15.461Z,14.80
2022-11-01T08:25:42.177Z,15.00
2022-11-01T08:28:14.790Z,15.10
2022-11-01T08:30:43.233Z,15.20
2022-11-01T08:33:10.171Z,15.30
2022-11-01T08:35:37.112Z,15.30
2022-11-01T08:38:04.542Z,15.30
2022-11-01T08:40:33.314Z,15.40
2022-11-01T08:43:00.864Z,15.60
2022-11-01T08:45:28.617Z,15.40
2022-11-01T08:47:59.843Z,15.40
2022-11-01T08:50:27.641Z,15.70
2022-11-01T08:52:54.343Z,15.60
2022-11-01T08:55:21.802Z,15.70
2022-11-01T08:57:48.848Z,15.80
2022-11-01T09:00:16.861Z,15.70
2022-11-01T09:02:43.637Z,15.90
2022-11-01T09:05:10.597Z,16.00
2022-11-01T09:07:37.978Z,16.00
2022-11-01T09:10:05.534Z,15.90
2022-11-01T09:12:32.964Z,16.10
2022-11-01T09:14:59.823Z,15.90
2022-11-01T09:17:26.728Z,16.10
2022-11-01T09:19:53.487Z,16.10
2022-11-01T09:22:20.274Z,16.00
2022-11-01T09:24:47.469Z,16.30
2022-11-01T09:27:14.205Z,16.20
2022-11-01T09:29:40.989Z,16.40
2022-11-01T09:32:07.842Z,16.20
2022-11-01T09:34:35.176Z,16.30
2022-11-01T09:37:02.160Z,16.10
2022-11-01T09:39:28.957Z,16.30
2022-11-01T09:42:02.873Z,16.30
2022-11-01T09:44:37.265Z,16.40
2022-11-01T09:47:08.278Z,16.50
2022-11-01T09:49:40.506Z,16.50
2022-11-01T09:52:10.629Z,16.50
2022-11-01T09:54:37.584Z,16.50
2022-11-01T09:57:14.067Z,16.50
2022-11-01T09:59:52.273Z,16.50
2022-11-01T10:02:37.404Z,16.50
2022-11-01T10:05:17.756Z,16.50
2022-11-01T10:08:27.688Z,16.50
2022-11-01T10:11:09.114Z,16.60
2022-11-01T10:13:44.455Z,16.50
2022-11-01T10:16:29.995Z,16.60
2022-11-01T10:19:17.439Z,16.50
2022-11-01T10:21:56.197Z,16.60
2022-11-01T10:24:36.162Z,16.70
2022-11-01T10:27:36.331Z,16.60
2022-11-01T10:30:15.962Z,16.60
2022-11-01T10:33:06.815Z,16.60
2022-11-01T10:35:44.608Z,16.60
2022-11-01T10:38:37.703Z,16.60
2022-11-01T10:41:25.470Z,16.70
2022-11-01T10:43:57.130Z,16.70
2022-11-01T10:46:29.782Z,16.80
2022-11-01T10:49:03.081Z,16.80
2022-11-01T10:51:33.743Z,16.80
2022-11-01T10:54:04.446Z,16.80
2022-11-01T10:56:44.729Z,16.90
2022-11-01T10:59:24.520Z,17.00
2022-11-01T11:01:53.129Z,17.00
2022-11-01T11:04:24.986Z,17.00
2022-11-01T11:06:52.573Z,16.80
2022-11-01T11:09:22.787Z,16.90
2022-11-01T11:11:50.620Z,16.80
2022-11-01T11:14:20.773Z,16.80
2022-11-01T11:16:54.211Z,16.90
2022-11-01T11:19:30.029Z,16.90
2022-11-01T11:21:58.801Z,17.00
2022-11-01T11:24:37.976Z,17.00
2022-11-01T11:27:12.997Z,17.00
2022-11-01T11:29:51.763Z,17.00
2022-11-01T11:32:29.732Z,16.90
2022-11-01T11:34:58.396Z,16.90
2022-11-01T11:37:29.953Z,16.90
2022-11-01T11:40:25.819Z,17.00
2022-11-01T11:43:13.656Z,17.00
2022-11-01T11:45:40.457Z,17.00
2022-11-01T11:48:21.987Z,16.90
2022-11-01T11:51:03.625Z,16.90
2022-11-01T11:53:32.129Z,16.80
2022-11-01T11:56:02.194Z,16.90
2022-11-01T11:58:48.308Z,16.80
2022-11-01T12:01:23.005Z,16.90
2022-11-01T12:03:52.118Z,16.90
2022-11-01T12:06:24.186Z,16.80
2022-11-01T12:08:53.398Z,16.90
2022-11-01T12:11:21.954Z,17.00
2022-11-01T12:14:03.136Z,16.90
2022-11-01T12:16:30.416Z,17.00
2022-11-01T12:19:02.839Z,17.00
2022-11-01T12:21:35.918Z,17.00
2022-11-01T12:24:05.762Z,17.00
2022-11-01T12:26:36.409Z,17.00
2022-11-01T12:29:15.277Z,16.90
2022-11-01T12:31:44.382Z,16.90
2022-11-01T12:34:27.974Z,16.90
2022-11-01T12:37:00.509Z,16.80
2022-11-01T12:39:34.722Z,16.80
2022-11-01T12:42:04.635Z,16.80
2022-11-01T12:44:40.086Z,16.80
2022-11-01T12:47:32.929Z,16.80
2022-11-01T12:50:20.579Z,16.70
2022-11-01T12:52:56.140Z,16.70
2022-11-01T12:55:36.069Z,16.70
2022-11-01T12:58:04.701Z,16.70
2022-11-01T13:01:09.494Z,16.60
2022-11-01T13:03:48.067Z,16.60
2022-11-01T13:06:42.274Z,16.60
2022-11-01T13:09:44.281Z,16.70
2022-11-01T13:12:38.783Z,16.70
2022-11-01T13:15:50.184Z,16.60
2022-11-01T13:18:19.977Z,16.50
2022-11-01T13:20:59.337Z,16.50
2022-11-01T13:23:26.029Z,16.40
2022-11-01T13:26:36.899Z,16.50
2022-11-01T13:29:24.429Z,16.50
2022-11-01T13:32:19.761Z,16.40
2022-11-01T13:35:02.333Z,16.30
2022-11-01T13:37:56.201Z,16.40
2022-11-01T13:40:41.001Z,16.40
2022-11-01T13:43:14.113Z,16.40
2022-11-01T13:46:12.764Z,16.40
2022-11-01T13:49:09.927Z,16.30
2022-11-01T13:51:56.698Z,16.40
2022-11-01T13:54:45.241Z,16.20
2022-11-01T13:57:15.581Z,16.20
2022-11-01T13:59:44.928Z,16.20
2022-11-01T14:02:24.504Z,16.20
2022-11-01T14:05:12.719Z,16.20
2022-11-01T14:07:45.525Z,16.10
2022-11-01T14:10:18.016Z,16.10
2022-11-01T14:12:49.132Z,16.00
2022-11-01T14:15:31.786Z,16.00
2022-11-01T14:18:08.086Z,15.90
2022-11-01T14:20:50.467Z,15.90
2022-11-01T14:23:29.234Z,15.90
2022-11-01T14:26:24.865Z,15.90
2022-11-01T14:28:54.376Z,15.90
2022-11-01T14:31:24.591Z,15.90
2022-11-01T14:33:56.157Z,15.80
2022-11-01T14:36:29.263Z,15.70
2022-11-01T14:39:20.563Z,15.80
2022-11-01T14:41:55.172Z,15.70
2022-11-01T14:44:36.640Z,15.70
2022-11-01T14:47:13.994Z,15.60
2022-11-01T14:49:43.273Z,15.60
2022-11-01T14:55:18.956Z,15.60
2022-11-01T14:57:48.423Z,15.50
2022-11-01T15:00:22.941Z,15.40
2022-11-01T15:02:50.787Z,15.40
2022-11-01T15:05:18.310Z,15.40
2022-11-01T15:07:54.409Z,15.40
2022-11-01T15:10:22.177Z,15.30
2022-11-01T15:12:57.638Z,15.30
2022-11-01T15:15:31.176Z,15.20
2022-11-01T15:18:13.012Z,15.20
2022-11-01T15:20:43.426Z,15.20
2022-11-01T15:23:28.448Z,15.10
2022-11-01T15:25:57.693Z,15.10
2022-11-01T15:28:30.854Z,15.00
2022-11-01T15:31:02.915Z,14.90
2022-11-01T15:33:33.404Z,14.90
2022-11-01T15:36:03.854Z,14.90
2022-11-01T15:38:34.390Z,14.80
2022-11-01T15:41:25.406Z,14.80
2022-11-01T15:43:54.505Z,14.80
2022-11-01T15:46:29.293Z,14.70
2022-11-01T15:49:00.590Z,14.60
2022-11-01T15:51:29.464Z,14.60
2022-11-01T15:54:05.818Z,14.50
2022-11-01T15:56:46.841Z,14.60
2022-11-01T15:59:24.210Z,14.50
2022-11-01T16:01:51.533Z,14.50
2022-11-01T16:04:20.736Z,14.50
2022-11-01T16:06:54.168Z,14.40
2022-11-01T16:09:46.117Z,14.40
2022-11-01T16:12:24.637Z,14.30
2022-11-01T16:14:54.859Z,14.30
2022-11-01T16:17:39.262Z,14.20
2022-11-01T16:20:27.194Z,14.20
2022-11-01T16:22:54.752Z,14.30
2022-11-01T16:25:24.071Z,14.20
2022-11-01T16:27:53.021Z,14.10
2022-11-01T16:30:45.219Z,14.10
2022-11-01T16:33:51.296Z,14.10
2022-11-01T16:36:17.992Z,14.00
2022-11-01T16:38:51.989Z,14.00
2022-11-01T16:41:22.078Z,14.00
2022-11-01T16:43:56.299Z,13.90
2022-11-01T16:46:24.873Z,13.90
2022-11-01T16:49:16.592Z,13.90
2022-11-01T16:51:43.449Z,13.90
2022-11-01T16:54:10.704Z,13.80
2022-11-01T16:56:51.471Z,13.70
2022-11-01T16:59:31.739Z,13.60
2022-11-01T17:01:59.793Z,13.60
2022-11-01T17:04:28.088Z,13.60
2022-11-01T17:06:57.878Z,13.50
2022-11-01T17:09:25.367Z,13.40
2022-11-01T17:11:53.860Z,13.30
2022-11-01T17:14:22.237Z,13.30
2022-11-01T17:16:50.980Z,13.20
2022-11-01T17:19:28.456Z,13.20
2022-11-01T17:21:57.157Z,13.10
2022-11-01T17:24:27.433Z,13.10
2022-11-01T17:26:59.178Z,13.10
2022-11-01T17:29:28.512Z,13.00
2022-11-01T17:31:55.297Z,13.00
2022-11-01T17:34:22.380Z,13.00
2022-11-01T17:36:49.922Z,12.90
2022-11-01T17:39:17.314Z,13.00
2022-11-01T17:41:44.113Z,13.00
2022-11-01T17:44:12.147Z,13.00
2022-11-01T17:46:39.926Z,13.10
2022-11-01T17:49:06.740Z,13.00
2022-11-01T17:51:34.118Z,13.10
2022-11-01T17:54:01.015Z,13.10
2022-11-01T17:56:27.768Z,13.10
2022-11-01T17:58:55.072Z,13.10
2022-11-01T18:01:22.004Z,13.20
2022-11-01T18:03:49.697Z,13.20
2022-11-01T18:06:17.207Z,13.20
2022-11-01T18:08:47.031Z,13.30
2022-11-01T18:11:48.500Z,13.20
2022-11-01T18:14:37.496Z,13.20
2022-11-01T18:17:25.885Z,13.20
2022-11-01T18:20:14.558Z,13.10
2022-11-01T18:22:50.403Z,13.20
2022-11-01T18:25:29.894Z,13.10
2022-11-01T18:28:00.404Z,13.20
2022-11-01T18:30:27.440Z,13.10
2022-11-01T18:33:07.061Z,13.10
2022-11-01T18:35:51.691Z,13.10
2022-11-01T18:38:42.340Z,13.20
2022-11-01T18:41:13.267Z,13.10
2022-11-01T18:43:40.525Z,13.10
2022-11-01T18:46:26.917Z,13.10
2022-11-01T18:49:10.105Z,13.10
2022-11-01T18:51:39.123Z,13.10
2022-11-01T18:54:08.903Z,13.10
2022-11-01T18:56:48.050Z,13.10
2022-11-01T18:59:31.418Z,13.10
2022-11-01T19:02:12.692Z,13.10
2022-11-01T19:04:43.657Z,13.10
2022-11-01T19:07:19.801Z,13.10
2022-11-01T19:09:53.441Z,13.00
2022-11-01T19:12:25.510Z,12.90
2022-11-01T19:15:14.123Z,13.00
2022-11-01T19:17:51.137Z,12.90
2022-11-01T19:20:27.214Z,12.90
2022-11-01T19:23:00.785Z,12.80
2022-11-01T19:25:32.878Z,12.90
2022-11-01T19:28:04.336Z,12.80
2022-11-01T19:30:33.128Z,12.90
2022-11-01T19:33:27.025Z,12.90
2022-11-01T19:35:57.455Z,12.90
2022-11-01T19:38:24.615Z,12.90
2022-11-01T19:40:53.738Z,13.00
2022-11-01T19:43:23.424Z,12.90
2022-11-01T19:45:52.485Z,12.80
2022-11-01T19:48:25.761Z,12.80
2022-11-01T19:50:54.193Z,12.90
2022-11-01T19:53:37.555Z,12.90
2022-11-01T19:56:06.726Z,12.90
2022-11-01T19:58:46.747Z,12.90
2022-11-01T20:01:31.533Z,12.80
2022-11-01T20:04:27.665Z,12.80
2022-11-01T20:07:01.902Z,12.80
2022-11-01T20:09:30.871Z,12.90
2022-11-01T20:11:57.688Z,12.80
2022-11-01T20:14:24.469Z,12.80
2022-11-01T20:16:51.226Z,13.00
2022-11-01T20:19:18.272Z,12.90
2022-11-01T20:21:45.337Z,12.90
2022-11-01T20:24:12.511Z,12.90
2022-11-01T20:26:39.605Z,12.80
2022-11-01T20:29:06.488Z,12.70
2022-11-01T20:31:33.261Z,12.80
2022-11-01T20:34:00.338Z,12.80
2022-11-01T20:36:28.200Z,12.70
2022-11-01T20:38:55.407Z,12.70
2022-11-01T20:41:22.662Z,12.70
2022-11-01T20:43:49.655Z,12.70
2022-11-01T20:46:16.565Z,12.60
2022-11-01T20:48:45.135Z,12.60
2022-11-01T20:51:13.573Z,12.70
2022-11-01T20:53:42.629Z,12.60
2022-11-01T20:56:09.559Z,12.60
2022-11-01T20:58:40.553Z,12.60
2022-11-01T21:01:18.485Z,12.60
2022-11-01T21:03:46.122Z,12.50
2022-11-01T21:06:15.173Z,12.60
2022-11-01T21:08:47.285Z,12.60
2022-11-01T21:11:22.796Z,12.60
2022-11-01T21:13:51.811Z,12.60
2022-11-01T21:16:27.947Z,12.50
2022-11-01T21:19:02.700Z,12.50
2022-11-01T21:21:33.121Z,12.50
2022-11-01T21:24:01.564Z,12.40
2022-11-01T21:26:33.048Z,12.40
2022-11-01T21:29:15.894Z,12.40
2022-11-01T21:31:43.154Z,12.40
2022-11-01T21:34:10.129Z,12.40
2022-11-01T21:36:42.004Z,12.30
2022-11-01T21:39:20.811Z,12.30
2022-11-01T21:41:57.982Z,12.30
2022-11-01T21:44:29.166Z,12.20
2022-11-01T21:47:13.829Z,12.30
2022-11-01T21:49:40.725Z,12.20
2022-11-01T21:54:42.571Z,12.20
2022-11-01T21:57:11.401Z,12.20
2022-11-01T21:59:38.787Z,12.20
2022-11-01T22:02:08.370Z,12.20
2022-11-01T22:04:35.457Z,12.20
2022-11-01T22:07:05.574Z,12.30
2022-11-01T22:12:08.249Z,12.20
2022-11-01T22:14:35.256Z,12.30
2022-11-01T22:17:02.520Z,12.30
2022-11-01T22:19:29.362Z,12.30
2022-11-01T22:21:56.902Z,12.30
2022-11-01T22:24:23.880Z,12.30
2022-11-01T22:26:51.074Z,12.30
2022-11-01T22:29:17.930Z,12.40
2022-11-01T22:31:44.713Z,12.40
2022-11-01T22:34:11.448Z,12.50
2022-11-01T22:36:40.637Z,12.40
2022-11-01T22:39:14.398Z,12.50
2022-11-01T22:41:41.715Z,12.50
2022-11-01T22:44:14.656Z,12.60
2022-11-01T22:46:56.938Z,12.50
2022-11-01T22:49:27.285Z,12.60
2022-11-01T22:51:56.887Z,12.60
2022-11-01T22:54:47.521Z,12.60
2022-11-01T22:57:23.823Z,12.50
2022-11-01T22:59:53.664Z,12.50
2022-11-01T23:02:29.724Z,12.50
2022-11-01T23:05:22.572Z,12.50
2022-11-01T23:07:51.667Z,12.60
2022-11-01T23:10:31.997Z,12.60
2022-11-01T23:13:18.696Z,12.60
2022-11-01T23:15:46.311Z,12.60
2022-11-01T23:18:21.157Z,12.60
2022-11-01T23:21:07.982Z,12.70
2022-11-01T23:23:37.535Z,12.60
2022-11-01T23:26:04.531Z,12.70
2022-11-01T23:28:35.409Z,12.60
2022-11-01T23:33:51.442Z,12.70
2022-11-01T23:36:34.410Z,12.70
2022-11-01T23:39:08.835Z,12.60
2022-11-01T23:41:44.792Z,12.80
2022-11-01T23:44:39.138Z,12.60
2022-11-01T23:47:29.095Z,12.70
2022-11-01T23:50:03.555Z,12.70
2022-11-01T23:52:43.669Z,12.70
2022-11-01T23:55:24.852Z,12.70
2022-11-01T23:58:00.202Z,12.80
